This is the latest recevied weather packets stored in our database for station/object WA1TYB-13. If no packets are shown the sender has not sent any weather packets the latest 10 day(s).
| Time | Temp. | Humidity | Pressure | Rain* | Wind** | Luminosity | Snow |
|---|---|---|---|---|---|---|---|
| 1777335836 | 8.89° C | 36% | 1013.8 hPa | 0 mm | - | 79 W/m² | - |
| 1777335535 | 8.89° C | 39% | 1013.9 hPa | 0 mm | - | 98 W/m² | - |
| 1777335231 | 8.89° C | 38% | 1013.6 hPa | 0 mm | - | 101 W/m² | - |
| 1777334929 | 8.89° C | 38% | 1013.8 hPa | 0 mm | - | 175 W/m² | - |
| 1777334627 | 8.89° C | 38% | 1013.9 hPa | 0 mm | - | 92 W/m² | - |
| 1777334324 | 10° C | 40% | 1013.8 hPa | 0 mm | - | 282 W/m² | - |
| 1777334019 | 9.44° C | 37% | 1013.8 hPa | 0 mm | - | 338 W/m² | - |
| 1777333715 | 8.89° C | 38% | 1013.8 hPa | 0 mm | - | 351 W/m² | - |
| 1777333411 | 8.33° C | 41% | 1013.9 hPa | 0 mm | - | 132 W/m² | - |
| 1777333110 | 8.89° C | 40% | 1013.5 hPa | 0 mm | - | 98 W/m² | - |
| 1777332807 | 10° C | 39% | 1013.5 hPa | 0 mm | - | 337 W/m² | - |
| 1777332504 | 9.44° C | 38% | 1013.8 hPa | 0 mm | - | 368 W/m² | - |
| 1777332200 | 9.44° C | 40% | 1013.8 hPa | 0 mm | - | 343 W/m² | - |
| 1777331898 | 9.44° C | 38% | 1013.8 hPa | 0 mm | - | 392 W/m² | - |
| 1777331595 | 8.89° C | 41% | 1013.8 hPa | 0 mm | - | 455 W/m² | - |
| 1777331292 | 9.44° C | 41% | 1013.9 hPa | 0 mm | - | 396 W/m² | - |
| 1777330989 | 8.89° C | 42% | 1013.4 hPa | 0 mm | - | 459 W/m² | - |
| 1777330686 | 8.89° C | 41% | 1013.9 hPa | 0 mm | - | 415 W/m² | - |
| 1777330383 | 8.33° C | 40% | 1013.8 hPa | 0 mm | - | 302 W/m² | - |
| 1777330081 | 7.78° C | 41% | 1013.8 hPa | 0 mm | - | 190 W/m² | - |
| 1777329780 | 8.33° C | 42% | 1014 hPa | 0 mm | - | 157 W/m² | - |
| 1777329478 | 8.33° C | 42% | 1013.9 hPa | 0 mm | - | 193 W/m² | - |
| 1777329175 | 8.33° C | 42% | 1013.9 hPa | 0 mm | - | 222 W/m² | - |
| 1777328872 | 8.33° C | 42% | 1013.8 hPa | 0 mm | - | 265 W/m² | - |
| 1777328570 | 7.78° C | 41% | 1014 hPa | 0 mm | - | 200 W/m² | - |
* Rain latest hour (hover to see other rain measurements)
** Current wind speed in m/s (hover to see current wind gust speed)